createdAt,value
2023-06-18T00:00:43.150Z,12.82
2023-06-18T00:03:10.226Z,13.38
2023-06-18T00:05:37.391Z,11.73
2023-06-18T00:08:06.919Z,11.65
2023-06-18T00:10:34.173Z,12.55
2023-06-18T00:13:01.332Z,12.25
2023-06-18T00:15:28.588Z,11.95
2023-06-18T00:18:21.478Z,12.38
2023-06-18T00:20:50.282Z,13.38
2023-06-18T00:23:17.382Z,13.13
2023-06-18T00:25:44.477Z,15.70
2023-06-18T00:28:11.607Z,14.82
2023-06-18T00:30:38.875Z,14.85
2023-06-18T00:33:07.245Z,14.98
2023-06-18T00:35:34.500Z,14.48
2023-06-18T00:38:04.112Z,13.98
2023-06-18T00:40:31.361Z,16.30
2023-06-18T00:42:59.722Z,15.23
2023-06-18T00:45:30.231Z,14.25
2023-06-18T00:47:58.499Z,13.45
2023-06-18T00:50:27.915Z,13.85
2023-06-18T00:53:01.275Z,13.32
2023-06-18T00:55:33.084Z,14.65
2023-06-18T00:58:01.142Z,13.65
2023-06-18T01:00:29.855Z,14.63
2023-06-18T01:03:01.664Z,14.45
2023-06-18T01:05:32.763Z,13.18
2023-06-18T01:08:07.841Z,13.40
2023-06-18T01:10:41.117Z,13.43
2023-06-18T01:13:10.525Z,14.32
2023-06-18T01:15:39.092Z,13.75
2023-06-18T01:18:08.973Z,13.05
2023-06-18T01:20:42.229Z,12.65
2023-06-18T01:23:31.618Z,12.30
2023-06-18T01:26:01.911Z,13.00
2023-06-18T01:28:30.699Z,12.50
2023-06-18T01:30:59.653Z,12.40
2023-06-18T01:33:26.929Z,12.45
2023-06-18T01:35:55.468Z,12.23
2023-06-18T01:38:43.911Z,12.30
2023-06-18T01:41:19.632Z,12.13
2023-06-18T01:44:08.967Z,12.45
2023-06-18T01:46:36.632Z,13.05
2023-06-18T01:49:08.589Z,12.18
2023-06-18T01:51:38.260Z,11.65
2023-06-18T01:54:08.685Z,11.90
2023-06-18T01:56:36.210Z,11.90
2023-06-18T01:59:04.254Z,11.77
2023-06-18T02:01:34.662Z,11.90
2023-06-18T02:04:03.996Z,11.27
2023-06-18T02:06:31.226Z,11.35
2023-06-18T02:08:58.669Z,11.35
2023-06-18T02:11:27.076Z,11.82
2023-06-18T02:13:54.296Z,11.57
2023-06-18T02:16:21.610Z,12.55
2023-06-18T02:18:48.787Z,11.98
2023-06-18T02:21:15.951Z,11.52
2023-06-18T02:23:43.139Z,13.13
2023-06-18T02:26:10.400Z,12.55
2023-06-18T02:28:37.723Z,12.60
2023-06-18T02:31:07.346Z,12.63
2023-06-18T02:33:34.548Z,12.27
2023-06-18T02:36:01.870Z,12.95
2023-06-18T02:38:29.283Z,11.80
2023-06-18T02:40:57.138Z,12.05
2023-06-18T02:43:26.352Z,11.65
2023-06-18T02:45:53.817Z,11.93
2023-06-18T02:48:21.068Z,11.20
2023-06-18T02:50:48.723Z,11.77
2023-06-18T02:53:16.216Z,12.30
2023-06-18T02:55:43.794Z,12.32
2023-06-18T02:58:29.962Z,12.65
2023-06-18T03:01:01.339Z,12.25
2023-06-18T03:06:09.843Z,12.30
2023-06-18T03:08:37.891Z,12.77
2023-06-18T03:11:05.819Z,11.35
2023-06-18T03:13:33.498Z,12.20
2023-06-18T03:16:01.024Z,12.25
2023-06-18T03:18:31.394Z,12.20
2023-06-18T03:21:05.280Z,12.23
2023-06-18T03:23:32.540Z,12.23
2023-06-18T03:26:07.537Z,10.90
2023-06-18T03:28:36.842Z,11.65
2023-06-18T03:31:04.431Z,10.98
2023-06-18T03:33:33.561Z,11.07
2023-06-18T03:36:01.721Z,10.68
2023-06-18T03:38:31.986Z,10.68
2023-06-18T03:41:02.685Z,10.88
2023-06-18T03:43:32.054Z,10.30
2023-06-18T03:46:00.126Z,10.07
2023-06-18T03:48:28.011Z,10.27
2023-06-18T03:50:55.123Z,10.18
2023-06-18T03:53:22.421Z,9.93
2023-06-18T03:55:49.848Z,9.90
2023-06-18T03:58:19.704Z,8.98
2023-06-18T04:00:48.804Z,9.32
2023-06-18T04:03:16.321Z,8.85
2023-06-18T04:05:43.519Z,9.18
2023-06-18T04:08:10.674Z,10.45
2023-06-18T04:10:38.875Z,9.63
2023-06-18T04:13:06.030Z,9.57
2023-06-18T04:15:33.378Z,9.50
2023-06-18T04:18:00.951Z,8.95
2023-06-18T04:20:28.596Z,8.80
2023-06-18T04:22:56.093Z,8.40
2023-06-18T04:25:23.822Z,8.55
2023-06-18T04:27:54.706Z,8.63
2023-06-18T04:30:22.570Z,8.70
2023-06-18T04:34:10.523Z,9.02
2023-06-18T04:36:38.009Z,8.70
2023-06-18T04:39:05.592Z,9.27
2023-06-18T04:41:32.857Z,8.93
2023-06-18T04:44:00.170Z,10.02
2023-06-18T04:46:27.390Z,8.55
2023-06-18T04:48:55.193Z,8.40
2023-06-18T04:51:24.477Z,8.27
2023-06-18T04:53:51.668Z,9.32
2023-06-18T04:56:19.572Z,8.80
2023-06-18T04:58:48.738Z,8.25
2023-06-18T05:01:16.102Z,8.52
2023-06-18T05:03:45.242Z,8.30
2023-06-18T05:06:13.120Z,8.68
2023-06-18T05:08:40.677Z,8.25
2023-06-18T05:11:07.894Z,7.90
2023-06-18T05:13:38.498Z,7.95
2023-06-18T05:16:05.660Z,8.40
2023-06-18T05:18:32.791Z,8.30
2023-06-18T05:21:01.445Z,7.93
2023-06-18T05:23:28.790Z,7.95
2023-06-18T05:25:56.499Z,9.02
2023-06-18T05:28:23.614Z,8.38
2023-06-18T05:30:50.805Z,8.60
2023-06-18T05:33:18.172Z,8.32
2023-06-18T05:35:50.030Z,8.15
2023-06-18T05:38:17.224Z,8.38
2023-06-18T05:40:44.461Z,7.68
2023-06-18T05:43:12.214Z,8.40
2023-06-18T05:45:45.157Z,7.80
2023-06-18T05:53:33.713Z,8.05
2023-06-18T05:56:26.078Z,7.97
2023-06-18T06:00:00.264Z,8.40
2023-06-18T06:04:55.405Z,7.80
2023-06-18T06:19:05.150Z,7.57
2023-06-18T06:24:00.242Z,7.68
2023-06-18T06:50:26.348Z,7.65
2023-06-18T06:53:03.306Z,7.05
2023-06-18T06:55:30.741Z,6.75
2023-06-18T06:57:58.071Z,6.22
2023-06-18T07:00:25.540Z,7.50
2023-06-18T07:02:54.290Z,7.25
2023-06-18T07:05:21.611Z,6.95
2023-06-18T07:07:48.994Z,7.07
2023-06-18T07:10:16.525Z,6.25
2023-06-18T07:12:45.188Z,7.20
2023-06-18T07:15:13.270Z,6.68
2023-06-18T07:17:40.931Z,7.28
2023-06-18T07:20:11.322Z,6.90
2023-06-18T07:22:48.348Z,7.25
2023-06-18T07:25:24.963Z,6.80
2023-06-18T07:27:52.623Z,7.00
2023-06-18T07:30:20.343Z,7.15
2023-06-18T07:32:47.660Z,7.38
2023-06-18T07:35:14.885Z,6.55
2023-06-18T07:37:45.034Z,6.15
2023-06-18T07:40:12.901Z,7.13
2023-06-18T07:42:40.170Z,6.38
2023-06-18T07:45:07.929Z,6.05
2023-06-18T07:47:35.027Z,6.88
2023-06-18T07:50:04.469Z,7.03
2023-06-18T07:52:33.737Z,7.10
2023-06-18T07:55:01.850Z,6.55
2023-06-18T07:57:29.049Z,5.97
2023-06-18T07:59:56.479Z,6.70
2023-06-18T08:02:23.706Z,6.13
2023-06-18T08:04:51.122Z,5.75
2023-06-18T08:07:19.437Z,6.65
2023-06-18T08:09:46.662Z,5.85
2023-06-18T08:12:14.017Z,5.80
2023-06-18T08:14:41.340Z,6.20
2023-06-18T08:17:08.534Z,6.22
2023-06-18T08:19:38.358Z,6.45
2023-06-18T08:22:06.362Z,6.75
2023-06-18T08:24:33.428Z,6.55
2023-06-18T08:27:00.537Z,6.50
2023-06-18T08:29:27.825Z,6.60
2023-06-18T08:32:01.272Z,6.50
2023-06-18T08:34:28.687Z,6.53
2023-06-18T08:36:55.917Z,6.20
2023-06-18T08:39:23.170Z,6.68
2023-06-18T08:41:50.873Z,6.65
2023-06-18T08:44:18.259Z,7.05
2023-06-18T08:46:48.156Z,6.88
2023-06-18T08:49:16.528Z,6.80
2023-06-18T08:51:45.714Z,7.15
2023-06-18T08:54:22.240Z,6.65
2023-06-18T08:56:58.709Z,6.55
2023-06-18T09:00:10.432Z,6.78
2023-06-18T09:02:52.242Z,6.35
2023-06-18T10:27:52.579Z,6.75
2023-06-18T10:44:03.902Z,6.47
2023-06-18T10:46:35.175Z,6.22
2023-06-18T10:49:17.276Z,6.57
2023-06-18T10:54:35.304Z,5.65
2023-06-18T10:57:03.359Z,6.18
2023-06-18T10:59:47.559Z,6.35
2023-06-18T11:02:15.289Z,6.50
2023-06-18T11:04:42.574Z,5.60
2023-06-18T11:07:20.923Z,6.28
2023-06-18T11:09:58.973Z,6.32
2023-06-18T11:12:28.796Z,6.50
2023-06-18T11:15:06.799Z,5.40
2023-06-18T11:17:35.144Z,5.97
2023-06-18T11:20:04.760Z,6.13
2023-06-18T11:22:32.255Z,5.65
2023-06-18T11:25:00.299Z,5.30
2023-06-18T11:27:28.689Z,5.40
2023-06-18T11:29:58.539Z,5.90
2023-06-18T11:32:29.271Z,5.93
2023-06-18T11:34:57.139Z,5.43
2023-06-18T11:37:29.080Z,5.13
2023-06-18T11:39:58.176Z,5.90
2023-06-18T11:42:28.701Z,5.50
2023-06-18T11:45:04.174Z,5.22
2023-06-18T11:47:35.802Z,5.78
2023-06-18T11:50:03.940Z,5.20
2023-06-18T11:52:31.890Z,5.30
2023-06-18T11:55:05.716Z,5.47
2023-06-18T11:57:34.402Z,5.55
2023-06-18T12:00:01.876Z,5.30
2023-06-18T12:02:41.026Z,5.18
2023-06-18T12:05:09.873Z,4.88
2023-06-18T12:07:43.928Z,4.85
2023-06-18T12:10:13.293Z,5.43
2023-06-18T12:13:34.457Z,4.40
2023-06-18T12:16:25.618Z,5.37
2023-06-18T12:19:02.415Z,5.22
2023-06-18T12:21:30.531Z,5.10
2023-06-18T12:23:58.383Z,5.22
2023-06-18T12:26:25.880Z,5.50
2023-06-18T12:28:54.554Z,5.45
2023-06-18T12:31:21.809Z,5.25
2023-06-18T12:33:48.934Z,5.22
2023-06-18T12:37:03.707Z,5.18
2023-06-18T13:02:52.665Z,4.57
2023-06-18T13:09:28.534Z,4.70
2023-06-18T13:15:59.106Z,4.65
2023-06-18T13:19:32.682Z,4.10
2023-06-18T13:27:44.990Z,4.78
2023-06-18T13:33:22.614Z,4.22
2023-06-18T13:36:31.114Z,4.57
2023-06-18T13:38:58.798Z,4.90
2023-06-18T13:41:27.168Z,4.60
2023-06-18T13:43:54.368Z,4.88
2023-06-18T13:46:21.583Z,4.60
2023-06-18T13:52:18.528Z,5.13
2023-06-18T13:55:30.155Z,4.93
2023-06-18T14:01:27.002Z,4.50
2023-06-18T14:04:43.752Z,4.60
2023-06-18T14:07:33.399Z,4.43
2023-06-18T14:10:13.704Z,4.85
2023-06-18T14:13:12.403Z,4.63
2023-06-18T14:16:34.097Z,4.90
2023-06-18T14:19:58.776Z,4.65
2023-06-18T14:23:09.145Z,4.53
2023-06-18T14:26:11.515Z,3.90
2023-06-18T14:32:35.052Z,4.28
2023-06-18T14:35:35.110Z,4.30
2023-06-18T14:38:16.254Z,4.63
2023-06-18T14:40:52.240Z,4.50
2023-06-18T14:43:47.058Z,4.28
2023-06-18T14:46:35.526Z,5.00
2023-06-18T14:49:17.396Z,4.18
2023-06-18T14:51:58.617Z,4.40
2023-06-18T14:55:05.418Z,4.45
2023-06-18T14:57:48.916Z,4.70
2023-06-18T15:01:11.954Z,4.30
2023-06-18T15:03:57.624Z,4.07
2023-06-18T15:06:24.795Z,4.57
2023-06-18T15:08:51.942Z,4.72
2023-06-18T15:11:19.309Z,4.68
2023-06-18T15:14:12.193Z,4.45
2023-06-18T15:16:44.743Z,4.45
2023-06-18T15:19:32.482Z,4.15
2023-06-18T15:22:51.121Z,3.88
2023-06-18T15:35:36.362Z,4.43
2023-06-18T15:38:23.878Z,4.82
2023-06-18T15:42:30.517Z,4.80
2023-06-18T15:47:51.379Z,4.50
2023-06-18T15:53:32.308Z,4.13
2023-06-18T15:56:24.898Z,4.03
2023-06-18T15:59:03.527Z,3.58
2023-06-18T16:01:39.893Z,3.90
2023-06-18T16:04:07.013Z,4.18
2023-06-18T16:06:34.047Z,4.35
2023-06-18T16:09:01.561Z,4.60
2023-06-18T16:11:28.783Z,4.45
2023-06-18T16:14:00.541Z,4.40
2023-06-18T16:16:28.563Z,4.30
2023-06-18T16:18:56.950Z,4.28
2023-06-18T16:21:24.223Z,4.18
2023-06-18T16:23:55.392Z,3.92
2023-06-18T16:26:26.165Z,3.47
2023-06-18T16:28:54.738Z,3.97
2023-06-18T16:31:23.010Z,4.15
2023-06-18T16:33:52.277Z,4.03
2023-06-18T16:36:19.755Z,3.90
2023-06-18T16:38:46.899Z,4.00
2023-06-18T16:41:13.928Z,4.72
2023-06-18T16:43:41.185Z,3.85
2023-06-18T16:46:09.043Z,4.75
2023-06-18T16:48:36.475Z,4.00
2023-06-18T16:51:05.299Z,3.95
2023-06-18T16:53:32.836Z,4.63
2023-06-18T16:55:59.951Z,4.30
2023-06-18T16:58:29.037Z,4.53
2023-06-18T17:00:56.345Z,4.07
2023-06-18T17:03:23.667Z,4.40
2023-06-18T17:05:51.097Z,4.50
2023-06-18T17:08:19.185Z,4.20
2023-06-18T17:10:46.431Z,3.95
2023-06-18T17:13:13.640Z,4.15
2023-06-18T17:15:41.011Z,4.70
2023-06-18T17:18:08.505Z,4.50
2023-06-18T17:21:07.979Z,3.97
2023-06-18T17:23:35.355Z,4.82
2023-06-18T17:26:05.593Z,4.72
2023-06-18T17:28:33.100Z,4.75
2023-06-18T17:31:09.799Z,4.28
2023-06-18T17:33:37.163Z,4.13
2023-06-18T17:36:11.777Z,4.55
2023-06-18T17:38:39.152Z,4.18
2023-06-18T17:41:08.560Z,4.18
2023-06-18T17:43:36.280Z,4.30
2023-06-18T17:46:18.338Z,3.85
2023-06-18T17:48:49.089Z,4.75
2023-06-18T17:51:17.865Z,4.68
2023-06-18T17:53:50.567Z,4.38
2023-06-18T17:56:20.854Z,4.60
2023-06-18T17:58:53.133Z,4.75
2023-06-18T18:01:23.359Z,4.20
2023-06-18T18:03:50.677Z,4.07
2023-06-18T18:06:17.967Z,3.97
2023-06-18T18:08:49.812Z,4.60
2023-06-18T18:11:18.490Z,4.50
2023-06-18T18:13:46.214Z,4.70
2023-06-18T18:16:13.973Z,4.50
2023-06-18T18:18:48.574Z,4.90
2023-06-18T18:21:16.708Z,5.50
2023-06-18T18:23:44.198Z,5.63
2023-06-18T18:26:14.021Z,6.15
2023-06-18T18:28:41.877Z,5.95
2023-06-18T18:31:09.671Z,5.78
2023-06-18T18:33:40.136Z,6.30
2023-06-18T18:36:09.652Z,6.38
2023-06-18T18:38:36.859Z,7.80
2023-06-18T18:41:04.076Z,7.38
2023-06-18T18:43:31.214Z,7.63
2023-06-18T18:45:58.823Z,7.38
2023-06-18T18:48:26.088Z,7.45
2023-06-18T18:50:53.559Z,6.38
2023-06-18T18:53:21.175Z,9.73
2023-06-18T18:55:49.100Z,6.18
2023-06-18T18:58:17.484Z,9.10
2023-06-18T19:00:44.701Z,6.93
2023-06-18T19:03:11.924Z,7.03
2023-06-18T19:05:39.151Z,6.95
2023-06-18T19:08:06.809Z,7.45
2023-06-18T19:10:34.188Z,6.75
2023-06-18T19:13:01.894Z,6.47
2023-06-18T19:15:29.158Z,6.32
2023-06-18T19:18:05.741Z,7.40
2023-06-18T19:20:36.792Z,7.38
2023-06-18T19:23:04.066Z,7.13
2023-06-18T19:25:34.523Z,7.68
2023-06-18T19:28:07.691Z,7.53
2023-06-18T19:30:35.119Z,7.25
2023-06-18T19:33:04.378Z,7.32
2023-06-18T19:35:31.695Z,8.02
2023-06-18T19:37:59.565Z,7.90
2023-06-18T19:40:26.678Z,7.55
2023-06-18T19:42:53.873Z,7.57
2023-06-18T19:45:21.062Z,7.57
2023-06-18T19:47:50.979Z,8.05
2023-06-18T19:50:18.692Z,8.35
2023-06-18T19:52:51.694Z,8.85
2023-06-18T19:55:47.272Z,8.52
2023-06-18T19:58:28.254Z,8.60
2023-06-18T20:01:15.245Z,8.45
2023-06-18T20:03:59.500Z,8.40
2023-06-18T20:06:47.794Z,8.77
2023-06-18T20:09:17.741Z,9.85
2023-06-18T20:11:45.121Z,8.93
2023-06-18T20:14:15.733Z,11.57
2023-06-18T20:16:42.833Z,8.27
2023-06-18T20:19:10.204Z,9.55
2023-06-18T20:21:37.496Z,7.72
2023-06-18T20:24:05.540Z,8.13
2023-06-18T20:26:59.107Z,7.57
2023-06-18T20:29:56.989Z,9.07
2023-06-18T20:32:44.818Z,8.38
2023-06-18T20:35:15.831Z,8.20
2023-06-18T20:37:49.051Z,7.90
2023-06-18T20:41:20.963Z,7.93
2023-06-18T20:47:44.319Z,12.50
2023-06-18T20:50:51.577Z,18.05
2023-06-18T20:53:19.942Z,17.10
2023-06-18T20:55:47.473Z,10.27
2023-06-18T20:58:17.713Z,10.82
2023-06-18T21:00:47.721Z,9.40
2023-06-18T21:03:55.989Z,10.40
2023-06-18T21:06:38.121Z,8.57
2023-06-18T21:09:05.727Z,8.43
2023-06-18T21:11:32.944Z,8.07
2023-06-18T21:14:00.328Z,8.32
2023-06-18T21:16:27.691Z,8.68
2023-06-18T21:18:55.069Z,8.13
2023-06-18T21:21:36.007Z,9.27
2023-06-18T21:24:30.330Z,8.77
2023-06-18T21:27:30.597Z,8.68
2023-06-18T21:30:00.770Z,9.60
2023-06-18T21:32:28.731Z,9.05
2023-06-18T21:34:56.696Z,8.85
2023-06-18T21:37:27.028Z,9.07
2023-06-18T21:40:09.043Z,8.55
2023-06-18T21:44:02.774Z,9.00
2023-06-18T21:47:33.547Z,8.27
2023-06-18T21:51:11.115Z,7.90
2023-06-18T21:57:31.492Z,8.07
2023-06-18T22:00:45.009Z,8.65
2023-06-18T22:03:18.801Z,9.75
2023-06-18T22:06:03.949Z,9.15
2023-06-18T22:08:51.142Z,9.90
2023-06-18T22:11:25.771Z,9.77
2023-06-18T22:14:00.383Z,9.90
2023-06-18T22:16:37.347Z,9.93
2023-06-18T22:19:21.547Z,9.80
2023-06-18T22:22:03.331Z,9.57
2023-06-18T22:24:40.785Z,9.32
2023-06-18T22:27:14.982Z,9.68
2023-06-18T22:46:24.922Z,9.43
2023-06-18T22:50:38.508Z,9.70
2023-06-18T23:01:37.504Z,8.77
2023-06-18T23:05:32.759Z,9.20
2023-06-18T23:16:56.191Z,9.23
2023-06-18T23:19:29.832Z,9.60
2023-06-18T23:21:59.855Z,9.50
2023-06-18T23:24:27.175Z,9.73
2023-06-18T23:26:57.878Z,9.43
2023-06-18T23:29:34.507Z,9.30
2023-06-18T23:32:21.281Z,9.13
2023-06-18T23:34:54.256Z,8.57
2023-06-18T23:37:24.441Z,9.48
2023-06-18T23:39:54.424Z,9.80
2023-06-18T23:42:26.017Z,9.60
2023-06-18T23:45:14.247Z,8.90
2023-06-18T23:47:58.219Z,9.73
2023-06-18T23:58:41.772Z,9.63
